Time;durP1;ratioP1;P1;durP2;ratioP2;P2;SDS_P1;SDS_P2;PMS_P1;PMS_P2;Temp;Humidity;BMP_temperature;BMP_pressure;BME280_temperature;BME280_humidity;BME280_pressure;Samples;Min_cycle;Max_cycle;Signal;HPM_P1;HPM_P2
2023/02/08 00:00:40;;;;;;;92.35;38.55;;;-2.30;99.90;;;;;;5026374;28;20053;-73
2023/02/08 00:03:07;;;;;;;97.05;37.72;;;-2.50;99.90;;;;;;5010425;28;20148;-73
2023/02/08 00:05:33;;;;;;;101.32;39.90;;;-2.40;99.90;;;;;;5007107;28;20045;-73
2023/02/08 00:07:58;;;;;;;89.70;37.83;;;-2.40;99.90;;;;;;5008091;28;20057;-73
2023/02/08 00:10:24;;;;;;;92.07;38.25;;;-2.30;99.90;;;;;;5014905;28;20056;-73
2023/02/08 00:12:51;;;;;;;92.13;37.33;;;-2.50;99.90;;;;;;5014336;28;20067;-73
2023/02/08 00:15:17;;;;;;;87.57;35.90;;;-2.40;99.90;;;;;;4982569;28;20061;-73
2023/02/08 00:17:43;;;;;;;103.60;39.88;;;-2.40;99.90;;;;;;5010551;28;20046;-73
2023/02/08 00:20:09;;;;;;;89.45;36.78;;;-2.30;99.90;;;;;;4983831;28;20060;-73
2023/02/08 00:22:35;;;;;;;88.15;35.58;;;-2.40;99.90;;;;;;5030608;28;20041;-73
2023/02/08 00:25:00;;;;;;;78.00;35.22;;;-2.40;99.90;;;;;;5020565;28;20111;-72
2023/02/08 00:27:26;;;;;;;88.35;36.40;;;-2.50;99.90;;;;;;5025933;28;20548;-73
2023/02/08 00:29:52;;;;;;;81.65;34.03;;;-2.60;99.90;;;;;;5007835;28;20052;-73
2023/02/08 00:32:17;;;;;;;90.07;36.92;;;-2.50;99.90;;;;;;5008516;28;20103;-73
2023/02/08 00:34:43;;;;;;;85.95;35.17;;;-2.60;99.90;;;;;;5000621;28;20069;-73
2023/02/08 00:37:09;;;;;;;86.68;36.22;;;-2.50;99.90;;;;;;5020552;28;20463;-73
2023/02/08 00:39:35;;;;;;;80.68;35.20;;;-2.60;99.90;;;;;;5022315;28;20053;-73
2023/02/08 00:42:01;;;;;;;98.80;40.03;;;-2.70;99.90;;;;;;5016101;28;20038;-73
2023/02/08 00:44:28;;;;;;;97.82;37.72;;;-2.90;99.90;;;;;;5010909;28;20045;-73
2023/02/08 00:46:54;;;;;;;92.28;36.22;;;-2.70;99.90;;;;;;5014712;28;20045;-73
2023/02/08 00:49:20;;;;;;;91.63;36.20;;;-2.80;99.90;;;;;;4993925;28;20049;-73
2023/02/08 00:51:45;;;;;;;93.07;37.20;;;-2.70;99.90;;;;;;5021907;28;20141;-73
2023/02/08 00:54:15;;;;;;;85.85;36.50;;;-2.80;99.90;;;;;;5018783;28;20049;-74
2023/02/08 00:56:41;;;;;;;86.47;36.45;;;-2.50;99.90;;;;;;5018222;28;20049;-73
2023/02/08 00:59:07;;;;;;;101.78;40.13;;;-2.60;99.90;;;;;;5003872;28;20053;-73
2023/02/08 01:01:32;;;;;;;92.70;37.35;;;-2.60;99.90;;;;;;5021715;28;20123;-73
2023/02/08 01:03:58;;;;;;;93.43;37.22;;;-2.60;99.90;;;;;;4991477;28;20045;-73
2023/02/08 01:06:24;;;;;;;96.57;38.28;;;-2.60;99.90;;;;;;5024407;28;20041;-73
2023/02/08 01:08:50;;;;;;;91.65;36.35;;;-2.70;99.90;;;;;;5026829;28;20041;-73
2023/02/08 01:11:18;;;;;;;88.88;37.05;;;-2.80;99.90;;;;;;5022678;28;20053;-73
2023/02/08 01:13:44;;;;;;;90.40;35.63;;;-2.80;99.90;;;;;;5027118;28;20548;-73
2023/02/08 01:16:15;;;;;;;87.50;35.72;;;-2.80;99.90;;;;;;5010260;28;20053;-73
2023/02/08 01:18:42;;;;;;;83.00;35.75;;;-2.80;99.90;;;;;;5024405;28;20060;-73
2023/02/08 01:21:12;;;;;;;95.03;37.38;;;-2.80;99.90;;;;;;5014727;28;20567;-73
2023/02/08 01:23:38;;;;;;;100.20;38.08;;;-2.50;99.90;;;;;;5016318;28;20041;-73
2023/02/08 01:26:04;;;;;;;96.60;38.40;;;-2.40;99.90;;;;;;5026322;28;20053;-73
2023/02/08 01:28:31;;;;;;;87.65;37.05;;;-2.40;99.90;;;;;;5033373;28;20658;-73
2023/02/08 01:30:57;;;;;;;110.78;41.10;;;-2.40;99.90;;;;;;5001383;28;20153;-73
2023/02/08 01:33:22;;;;;;;102.22;39.05;;;-2.50;99.90;;;;;;5018724;28;20407;-73
2023/02/08 01:35:52;;;;;;;102.00;39.80;;;-2.50;99.90;;;;;;5020186;28;20052;-73
2023/02/08 01:38:19;;;;;;;92.75;36.60;;;-2.60;99.90;;;;;;5018840;28;20514;-73
2023/02/08 01:40:46;;;;;;;99.75;39.13;;;-2.50;99.90;;;;;;5012931;28;20398;-73
2023/02/08 01:43:24;;;;;;;107.03;39.63;;;-2.50;99.90;;;;;;5023889;28;20113;-73
2023/02/08 01:45:49;;;;;;;109.68;39.05;;;-2.50;99.90;;;;;;5028527;28;20374;-73
2023/02/08 01:48:36;;;;;;;101.45;40.70;;;-2.50;99.90;;;;;;5013405;28;20537;-72
2023/02/08 01:51:22;;;;;;;107.57;40.47;;;-2.50;99.90;;;;;;5023739;28;20111;-73
2023/02/08 01:53:48;;;;;;;106.28;40.10;;;-2.50;99.90;;;;;;5018322;28;20041;-73
2023/02/08 01:56:35;;;;;;;100.43;41.72;;;-2.50;99.90;;;;;;4995758;28;20041;-73
2023/02/08 01:59:04;;;;;;;103.32;40.90;;;-2.60;99.90;;;;;;4999844;28;20045;-73
2023/02/08 02:01:30;;;;;;;109.45;44.35;;;-2.50;99.90;;;;;;5006614;28;20128;-73
2023/02/08 02:03:57;;;;;;;106.22;40.33;;;-2.50;99.90;;;;;;5012768;28;20846;-73
2023/02/08 02:06:24;;;;;;;99.20;38.38;;;-2.60;99.90;;;;;;5008725;28;20112;-73
2023/02/08 02:08:55;;;;;;;105.78;42.00;;;-2.50;99.90;;;;;;5028693;28;20128;-73
2023/02/08 02:11:21;;;;;;;94.97;38.92;;;-2.40;99.90;;;;;;5026467;28;20084;-73
2023/02/08 02:13:47;;;;;;;105.20;40.35;;;-2.50;99.90;;;;;;5024071;28;20085;-73
2023/02/08 02:16:13;;;;;;;97.10;39.75;;;-2.40;99.90;;;;;;5022664;28;20409;-74
2023/02/08 02:18:40;;;;;;;98.40;40.92;;;-2.30;99.90;;;;;;5008839;28;20072;-74
2023/02/08 02:21:38;;;;;;;112.57;41.15;;;-2.40;99.90;;;;;;5018835;28;20371;-74
2023/02/08 02:24:10;;;;;;;103.13;38.58;;;-2.50;99.90;;;;;;4991088;28;20042;-74
2023/02/08 02:26:51;;;;;;;102.97;40.20;;;-2.50;99.90;;;;;;5026205;28;20095;-73
2023/02/08 02:29:34;;;;;;;105.70;41.25;;;-2.60;99.90;;;;;;5023593;28;20052;-73
2023/02/08 02:32:18;;;;;;;99.90;39.00;;;-2.70;99.90;;;;;;5046235;28;20421;-73
2023/02/08 02:35:19;;;;;;;99.30;39.30;;;-2.70;99.90;;;;;;5047901;28;20136;-72
2023/02/08 02:37:59;;;;;;;95.40;38.55;;;-2.70;99.90;;;;;;5041683;28;20060;-73
2023/02/08 02:40:59;;;;;;;111.05;42.25;;;-2.60;99.90;;;;;;5009801;28;20045;-73
2023/02/08 02:43:45;;;;;;;107.57;42.25;;;-2.80;99.90;;;;;;5026435;28;20183;-73
2023/02/08 02:46:20;;;;;;;106.10;39.50;;;-2.80;99.90;;;;;;4998279;28;20037;-73
2023/02/08 02:48:55;;;;;;;104.43;40.75;;;-2.70;99.90;;;;;;5020299;28;20121;-73
2023/02/08 02:51:35;;;;;;;102.25;39.38;;;-2.80;99.90;;;;;;5056416;28;20073;-73
2023/02/08 02:54:21;;;;;;;112.38;41.20;;;-2.80;99.90;;;;;;5048039;28;20048;-72
2023/02/08 02:56:50;;;;;;;117.63;42.03;;;-2.90;99.90;;;;;;4995704;28;20073;-73
2023/02/08 02:59:16;;;;;;;105.63;40.15;;;-3.00;99.90;;;;;;5025698;28;20191;-73
2023/02/08 03:01:43;;;;;;;117.60;43.38;;;-3.10;99.90;;;;;;5012477;28;20564;-73
2023/02/08 03:04:17;;;;;;;104.68;40.53;;;-3.00;99.90;;;;;;5008991;28;20374;-73
2023/02/08 03:07:01;;;;;;;114.90;42.85;;;-3.00;99.90;;;;;;5028258;28;20047;-73
2023/02/08 03:09:45;;;;;;;116.20;42.10;;;-3.00;99.90;;;;;;4993803;28;20093;-73
2023/02/08 03:12:39;;;;;;;102.60;39.45;;;-3.00;99.90;;;;;;5029999;28;20533;-72
2023/02/08 03:15:05;;;;;;;100.65;35.10;;;-3.00;99.90;;;;;;4982015;28;20058;-72
2023/02/08 03:17:50;;;;;;;100.38;38.92;;;-3.00;99.90;;;;;;5014560;28;20533;-72
2023/02/08 03:20:28;;;;;;;100.55;36.63;;;-3.00;99.90;;;;;;5024456;28;20084;-72
2023/02/08 03:23:13;;;;;;;;;;;-2.90;99.90;;;;;;5020250;28;20053;-72
2023/02/08 03:26:01;;;;;;;96.85;35.50;;;-3.10;99.90;;;;;;5035476;28;20050;-72
2023/02/08 03:28:39;;;;;;;109.20;39.90;;;-3.20;99.90;;;;;;5032094;28;20064;-73
2023/02/08 03:31:12;;;;;;;;;;;-3.30;99.90;;;;;;5010460;28;20046;-73
2023/02/08 03:34:20;;;;;;;107.30;35.67;;;-3.30;99.90;;;;;;5019946;28;19912;-73
2023/02/08 03:37:03;;;;;;;99.57;33.60;;;-3.30;99.90;;;;;;5009650;28;21136;-73
2023/02/08 03:39:29;;;;;;;95.50;33.25;;;-3.40;99.90;;;;;;5007432;28;20069;-73
2023/02/08 03:41:59;;;;;;;88.57;34.80;;;-3.60;99.90;;;;;;5023767;28;20173;-73
2023/02/08 03:44:33;;;;;;;92.72;33.90;;;-3.40;99.90;;;;;;5001328;28;20054;-73
2023/02/08 03:47:04;;;;;;;91.63;34.17;;;-3.40;99.90;;;;;;4995543;28;20053;-72
2023/02/08 03:49:32;;;;;;;92.47;34.88;;;-3.60;99.90;;;;;;5005825;28;20111;-73
2023/02/08 03:52:00;;;;;;;90.22;33.55;;;-3.50;99.90;;;;;;5028720;28;20048;-73
2023/02/08 03:54:26;;;;;;;93.00;33.87;;;-3.60;99.90;;;;;;5022540;28;20065;-73
2023/02/08 03:57:00;;;;;;;88.13;33.65;;;-3.50;99.90;;;;;;5040731;28;20288;-73
2023/02/08 03:59:31;;;;;;;93.15;34.50;;;-3.40;99.90;;;;;;5002972;28;20136;-73
2023/02/08 04:01:58;;;;;;;89.25;32.50;;;-3.60;99.90;;;;;;5040327;28;20084;-73
2023/02/08 04:04:25;;;;;;;97.90;35.43;;;-3.50;99.90;;;;;;5024827;28;20065;-73
2023/02/08 04:06:51;;;;;;;88.25;32.13;;;-3.60;99.90;;;;;;4996104;28;20056;-73
2023/02/08 04:09:16;;;;;;;91.00;32.65;;;-3.60;99.90;;;;;;5004743;28;20057;-73
2023/02/08 04:11:42;;;;;;;88.53;31.35;;;-3.70;99.90;;;;;;5020502;28;20049;-73
2023/02/08 04:14:08;;;;;;;81.18;29.85;;;-3.70;99.90;;;;;;5030843;28;20496;-73
2023/02/08 04:16:34;;;;;;;83.07;29.23;;;-3.70;99.90;;;;;;5008122;28;20057;-72
2023/02/08 04:18:59;;;;;;;89.93;32.75;;;-3.60;99.90;;;;;;5004244;28;20045;-72
2023/02/08 04:21:26;;;;;;;85.07;32.13;;;-3.60;99.90;;;;;;5000404;28;20121;-72
2023/02/08 04:23:51;;;;;;;83.25;32.38;;;-3.70;99.90;;;;;;5015642;28;20048;-72
2023/02/08 04:26:17;;;;;;;82.68;31.23;;;-3.70;99.90;;;;;;5028687;28;20071;-72
2023/02/08 04:28:43;;;;;;;81.57;29.98;;;-3.70;99.90;;;;;;5014449;28;20045;-73
2023/02/08 04:31:09;;;;;;;80.13;30.63;;;-3.60;99.90;;;;;;5000839;28;20065;-73
2023/02/08 04:33:35;;;;;;;89.68;30.88;;;-3.60;99.90;;;;;;5030137;28;20049;-73
2023/02/08 04:36:00;;;;;;;92.18;32.08;;;-3.60;99.90;;;;;;5046361;28;20056;-73
2023/02/08 04:38:27;;;;;;;80.07;29.42;;;-3.70;99.90;;;;;;4991660;28;20553;-72
2023/02/08 04:40:53;;;;;;;84.60;30.77;;;-3.70;99.90;;;;;;5006345;28;20049;-73
2023/02/08 04:43:19;;;;;;;87.80;29.73;;;-3.80;99.90;;;;;;5029719;28;20477;-72
2023/02/08 04:45:45;;;;;;;102.65;34.03;;;-3.90;99.90;;;;;;5019256;28;20765;-73
2023/02/08 04:48:10;;;;;;;95.10;32.90;;;-4.00;99.90;;;;;;5012331;28;20052;-73
2023/02/08 04:50:36;;;;;;;98.18;32.80;;;-3.90;99.90;;;;;;5010123;28;20050;-73
2023/02/08 04:53:02;;;;;;;98.88;33.60;;;-3.90;99.90;;;;;;5011127;28;20148;-73
2023/02/08 04:55:28;;;;;;;97.13;32.22;;;-3.80;99.90;;;;;;5014484;28;20050;-73
2023/02/08 04:57:53;;;;;;;103.80;34.80;;;-3.80;99.90;;;;;;5017297;28;20049;-73
2023/02/08 05:00:19;;;;;;;102.45;33.58;;;-3.70;99.90;;;;;;5022067;28;20054;-73
2023/02/08 05:02:45;;;;;;;114.70;34.85;;;-3.80;99.90;;;;;;5007994;28;20045;-73
2023/02/08 05:05:10;;;;;;;119.50;37.65;;;-3.90;99.90;;;;;;5051477;28;20045;-72
2023/02/08 05:07:36;;;;;;;112.82;35.92;;;-4.00;99.90;;;;;;5013091;28;20073;-72
2023/02/08 05:10:03;;;;;;;122.00;33.90;;;-4.00;99.90;;;;;;5027750;28;20056;-73
2023/02/08 05:12:29;;;;;;;122.18;36.58;;;-4.00;99.90;;;;;;5013681;28;20563;-73
2023/02/08 05:14:55;;;;;;;128.13;36.60;;;-4.00;99.90;;;;;;4993492;28;20053;-72
2023/02/08 05:17:21;;;;;;;127.25;36.25;;;-4.10;99.90;;;;;;5028519;28;20111;-73
2023/02/08 05:19:47;;;;;;;125.13;38.97;;;-4.00;99.90;;;;;;5023020;28;20061;-72
2023/02/08 05:22:12;;;;;;;131.98;40.17;;;-4.00;99.90;;;;;;5009639;28;20127;-73
2023/02/08 05:24:38;;;;;;;128.13;38.75;;;-4.00;99.90;;;;;;5015298;28;20046;-73
2023/02/08 05:27:04;;;;;;;131.43;37.85;;;-4.00;99.90;;;;;;5017456;28;20063;-73
2023/02/08 05:29:30;;;;;;;126.93;42.55;;;-4.00;99.90;;;;;;5020336;28;20049;-73
2023/02/08 05:31:55;;;;;;;124.57;38.47;;;-3.90;99.90;;;;;;5023166;28;20104;-73
2023/02/08 05:34:21;;;;;;;119.53;38.28;;;-3.90;99.90;;;;;;5016852;28;20042;-73
2023/02/08 05:36:47;;;;;;;138.43;40.83;;;-3.90;99.90;;;;;;5044129;28;20132;-73
2023/02/08 05:39:13;;;;;;;121.30;38.70;;;-4.00;99.90;;;;;;4998491;28;20437;-73
2023/02/08 05:41:38;;;;;;;122.65;36.75;;;-4.00;99.90;;;;;;5006545;28;20474;-73
2023/02/08 05:44:04;;;;;;;106.82;35.45;;;-4.00;99.90;;;;;;5037786;28;20441;-73
2023/02/08 05:46:30;;;;;;;108.82;34.28;;;-3.80;99.90;;;;;;5012463;28;20151;-73
2023/02/08 05:48:55;;;;;;;106.60;34.90;;;-3.70;99.90;;;;;;5020560;28;20049;-73
2023/02/08 05:51:21;;;;;;;105.13;33.83;;;-3.70;99.90;;;;;;5026970;28;20046;-73
2023/02/08 05:53:47;;;;;;;99.65;32.97;;;-3.70;99.90;;;;;;4997113;28;20716;-73
2023/02/08 05:56:14;;;;;;;103.88;33.85;;;-3.70;99.90;;;;;;4977356;28;20073;-73
2023/02/08 05:58:40;;;;;;;100.53;32.47;;;-3.60;99.90;;;;;;5013350;28;20628;-73
2023/02/08 06:01:12;;;;;;;107.30;33.55;;;-3.70;99.90;;;;;;5012184;28;20128;-73
2023/02/08 06:03:38;;;;;;;104.68;34.53;;;-3.80;99.90;;;;;;5016571;28;20056;-72
2023/02/08 06:06:04;;;;;;;104.50;35.08;;;-3.70;99.90;;;;;;5043521;28;20057;-73
2023/02/08 06:08:30;;;;;;;97.38;33.15;;;-3.80;99.90;;;;;;5010899;28;20049;-72
2023/02/08 06:10:56;;;;;;;113.45;36.90;;;-3.90;99.90;;;;;;5013336;28;20266;-72
2023/02/08 06:13:21;;;;;;;101.38;33.67;;;-3.80;99.90;;;;;;5010393;28;20065;-72
2023/02/08 06:15:47;;;;;;;96.95;32.97;;;-4.00;99.90;;;;;;5009201;28;20103;-73
2023/02/08 06:18:13;;;;;;;95.32;31.20;;;-3.80;99.90;;;;;;5016660;28;20466;-73
2023/02/08 06:20:39;;;;;;;95.45;32.70;;;-3.80;99.90;;;;;;5040355;28;20060;-73
2023/02/08 06:23:04;;;;;;;106.35;32.65;;;-3.80;99.90;;;;;;5027321;28;20080;-73
2023/02/08 06:25:30;;;;;;;99.57;33.35;;;-3.90;99.90;;;;;;5023505;28;20045;-73
2023/02/08 06:27:56;;;;;;;100.10;33.45;;;-3.80;99.90;;;;;;5025113;28;20079;-73
2023/02/08 06:30:21;;;;;;;83.40;31.00;;;-3.70;99.90;;;;;;5042390;28;20458;-73
2023/02/08 06:32:47;;;;;;;86.43;31.42;;;-3.70;99.90;;;;;;5009270;28;20046;-73
2023/02/08 06:35:13;;;;;;;89.88;31.50;;;-3.70;99.90;;;;;;5008987;28;20052;-73
2023/02/08 06:37:39;;;;;;;87.93;30.85;;;-3.70;99.90;;;;;;5000321;28;20359;-73
2023/02/08 06:40:06;;;;;;;79.93;28.58;;;-3.80;99.90;;;;;;5009790;28;20076;-73
2023/02/08 06:42:32;;;;;;;110.63;33.92;;;-3.70;99.90;;;;;;5016165;28;20065;-73
2023/02/08 06:44:59;;;;;;;92.90;33.10;;;-3.90;99.90;;;;;;4987774;28;20810;-73
2023/02/08 06:47:26;;;;;;;90.73;32.33;;;-3.80;99.90;;;;;;5015140;28;20087;-73
2023/02/08 06:49:51;;;;;;;88.50;30.38;;;-3.70;99.90;;;;;;5024041;28;20052;-73
2023/02/08 06:52:18;;;;;;;86.85;29.40;;;-3.70;99.90;;;;;;5018348;28;20049;-74
2023/02/08 06:54:44;;;;;;;70.85;24.27;;;-3.70;99.90;;;;;;5024222;28;20060;-73
2023/02/08 06:57:11;;;;;;;75.45;29.48;;;-3.80;99.90;;;;;;4998250;28;20049;-73
2023/02/08 06:59:40;;;;;;;78.55;29.70;;;-3.80;99.90;;;;;;5016386;28;20087;-73
2023/02/08 07:02:13;;;;;;;76.35;29.15;;;-3.90;99.90;;;;;;5012194;28;20072;-73
2023/02/08 07:04:39;;;;;;;80.15;30.45;;;-3.90;99.90;;;;;;5015911;28;20425;-73
2023/02/08 07:07:05;;;;;;;82.25;29.23;;;-3.90;99.90;;;;;;5008690;28;20041;-73
2023/02/08 07:09:33;;;;;;;83.35;30.63;;;-3.80;99.90;;;;;;5008164;28;20077;-73
2023/02/08 07:12:04;;;;;;;77.95;29.92;;;-3.80;99.90;;;;;;5023716;28;20048;-74
2023/02/08 07:14:39;;;;;;;95.47;31.35;;;-3.70;99.90;;;;;;5019611;28;20532;-73
2023/02/08 07:17:05;;;;;;;82.28;31.48;;;-3.70;99.90;;;;;;5029617;28;20135;-72
2023/02/08 07:19:31;;;;;;;91.55;32.90;;;-3.60;99.90;;;;;;5025747;28;20469;-72
2023/02/08 07:22:06;;;;;;;81.53;30.85;;;-3.70;99.90;;;;;;5006098;28;20057;-72
2023/02/08 07:24:39;;;;;;;93.60;32.63;;;-3.60;99.90;;;;;;5042424;28;20084;-73
2023/02/08 07:27:05;;;;;;;100.25;32.95;;;-3.70;99.90;;;;;;5010861;28;20073;-74
2023/02/08 07:29:31;;;;;;;85.70;32.03;;;-3.60;99.90;;;;;;4995905;28;20111;-73
2023/02/08 07:31:58;;;;;;;81.28;30.33;;;-3.50;99.90;;;;;;5015414;28;20053;-74
2023/02/08 07:34:24;;;;;;;79.90;29.92;;;-3.40;99.90;;;;;;5013870;28;20049;-73
2023/02/08 07:36:49;;;;;;;90.40;34.08;;;-3.40;99.90;;;;;;5042091;28;20056;-73
2023/02/08 07:39:15;;;;;;;82.20;30.50;;;-3.40;99.90;;;;;;4994974;28;20042;-73
2023/02/08 07:41:41;;;;;;;86.07;31.15;;;-3.30;99.90;;;;;;5021503;28;20386;-73
2023/02/08 07:44:07;;;;;;;78.05;29.98;;;-3.30;99.90;;;;;;5025310;28;20045;-73
2023/02/08 07:46:32;;;;;;;77.95;29.05;;;-3.30;99.90;;;;;;5003345;28;20042;-73
2023/02/08 07:48:58;;;;;;;80.25;30.58;;;-3.10;99.90;;;;;;5025272;28;20122;-73
2023/02/08 07:51:24;;;;;;;78.10;30.00;;;-3.10;99.90;;;;;;5015314;28;20045;-73
2023/02/08 07:53:50;;;;;;;82.72;31.92;;;-3.00;99.90;;;;;;5020221;28;20053;-73
2023/02/08 07:56:16;;;;;;;84.68;31.92;;;-3.00;99.90;;;;;;5035490;28;20054;-73
2023/02/08 07:58:42;;;;;;;79.47;28.88;;;-2.90;99.90;;;;;;5008440;28;20069;-73
2023/02/08 08:01:07;;;;;;;76.72;29.27;;;-2.80;99.90;;;;;;5054521;28;20120;-73
2023/02/08 08:03:33;;;;;;;81.40;30.05;;;-2.80;99.90;;;;;;5019342;28;20046;-73
2023/02/08 08:05:59;;;;;;;82.38;32.83;;;-2.80;99.90;;;;;;5028741;28;20520;-73
2023/02/08 08:08:25;;;;;;;78.70;29.58;;;-2.90;99.90;;;;;;5013524;28;20056;-72
2023/02/08 08:10:50;;;;;;;81.07;31.52;;;-2.80;99.90;;;;;;5020087;28;20060;-74
2023/02/08 08:13:16;;;;;;;82.18;32.53;;;-2.70;99.90;;;;;;4997153;28;20402;-73
2023/02/08 08:15:42;;;;;;;79.65;31.08;;;-2.60;99.90;;;;;;5031946;28;20045;-74
2023/02/08 08:18:08;;;;;;;81.00;31.30;;;-2.60;99.90;;;;;;5018816;28;20175;-74
2023/02/08 08:20:33;;;;;;;84.68;31.00;;;-2.60;99.90;;;;;;4977707;28;20533;-74
2023/02/08 08:22:59;;;;;;;79.40;31.23;;;-2.50;99.90;;;;;;5060438;28;20038;-74
2023/02/08 08:25:25;;;;;;;76.70;30.15;;;-2.60;99.90;;;;;;5011075;28;20463;-73
2023/02/08 08:27:52;;;;;;;87.68;31.50;;;-2.50;99.90;;;;;;5004046;28;20049;-73
2023/02/08 08:30:17;;;;;;;77.72;30.60;;;-2.50;99.90;;;;;;5022381;28;20394;-73
2023/02/08 08:32:43;;;;;;;77.03;30.08;;;-2.60;99.90;;;;;;5014341;28;20045;-75
2023/02/08 08:35:09;;;;;;;79.43;30.92;;;-2.40;99.90;;;;;;5018451;28;20096;-75
2023/02/08 08:37:35;;;;;;;72.32;29.63;;;-2.50;99.90;;;;;;5023827;28;20473;-74
2023/02/08 08:40:01;;;;;;;79.47;31.38;;;-2.40;99.90;;;;;;5011251;28;20048;-74
2023/02/08 08:42:27;;;;;;;81.65;33.22;;;-2.40;99.90;;;;;;5013441;28;20045;-73
2023/02/08 08:44:53;;;;;;;81.45;31.35;;;-2.30;99.90;;;;;;5035761;28;20041;-75
2023/02/08 08:47:19;;;;;;;75.47;30.17;;;-2.20;99.90;;;;;;5031005;28;20403;-74
2023/02/08 08:49:44;;;;;;;73.00;30.95;;;-2.10;99.90;;;;;;5014112;28;20049;-73
2023/02/08 08:52:10;;;;;;;73.63;29.90;;;-1.90;99.90;;;;;;5007408;28;20041;-74
2023/02/08 08:54:36;;;;;;;75.03;32.28;;;-1.90;99.90;;;;;;5006041;28;20053;-75
2023/02/08 08:57:02;;;;;;;76.30;32.22;;;-1.80;99.90;;;;;;5028249;28;20052;-74
2023/02/08 08:59:28;;;;;;;74.97;29.90;;;-1.70;99.90;;;;;;5022045;28;20077;-73
2023/02/08 09:01:54;;;;;;;72.13;30.55;;;-1.70;99.90;;;;;;4997946;28;20037;-74
2023/02/08 09:04:21;;;;;;;72.50;31.00;;;-1.70;99.90;;;;;;5029140;28;20142;-74
2023/02/08 09:06:51;;;;;;;85.05;32.28;;;-1.70;99.90;;;;;;5022339;28;20053;-77
2023/02/08 09:09:18;;;;;;;77.22;32.15;;;-1.60;99.90;;;;;;5007365;28;20092;-77
2023/02/08 09:11:44;;;;;;;84.15;33.13;;;-1.40;99.90;;;;;;5045058;28;20053;-77
2023/02/08 09:14:09;;;;;;;76.72;29.98;;;-1.40;99.90;;;;;;5026718;28;20072;-77
2023/02/08 09:16:35;;;;;;;74.07;30.05;;;-1.20;99.90;;;;;;5012067;28;20049;-77
2023/02/08 09:19:02;;;;;;;81.45;31.05;;;-1.10;99.90;;;;;;5016346;28;20132;-77
2023/02/08 09:21:28;;;;;;;78.63;32.05;;;-0.90;99.90;;;;;;5014483;28;20033;-77
2023/02/08 09:23:54;;;;;;;71.07;30.90;;;-0.90;99.90;;;;;;5012346;28;20038;-77
2023/02/08 09:26:19;;;;;;;77.70;31.77;;;-0.70;99.90;;;;;;4999892;28;20048;-77
2023/02/08 09:28:45;;;;;;;78.43;30.45;;;-0.50;99.90;;;;;;5006625;28;20052;-77
2023/02/08 09:31:14;;;;;;;70.75;30.05;;;-0.50;99.90;;;;;;4988822;28;20382;-77
2023/02/08 09:33:40;;;;;;;79.70;30.45;;;-0.50;99.90;;;;;;5025993;28;20359;-77
2023/02/08 09:36:07;;;;;;;75.18;31.05;;;-0.40;99.90;;;;;;5026117;28;20042;-77
2023/02/08 09:38:33;;;;;;;69.97;29.58;;;-0.20;99.90;;;;;;5025797;28;20434;-77
2023/02/08 09:41:05;;;;;;;70.45;29.10;;;0.00;99.90;;;;;;5021274;28;20054;-77
2023/02/08 09:43:42;;;;;;;74.53;28.65;;;0.20;99.90;;;;;;5019326;28;20038;-77
2023/02/08 09:46:16;;;;;;;70.07;29.42;;;0.30;99.90;;;;;;5003668;28;20050;-77
2023/02/08 09:48:41;;;;;;;87.53;30.70;;;0.30;99.90;;;;;;5013373;28;20462;-77
2023/02/08 09:51:24;;;;;;;69.47;28.65;;;0.40;99.90;;;;;;4980770;28;20156;-76
2023/02/08 09:53:54;;;;;;;63.40;27.58;;;0.90;99.90;;;;;;5025369;28;20095;-77
2023/02/08 09:56:32;;;;;;;57.35;26.08;;;1.00;99.90;;;;;;5000325;28;20077;-77
2023/02/08 09:58:58;;;;;;;63.17;27.60;;;1.10;99.90;;;;;;5023112;28;20100;-77
2023/02/08 10:01:33;;;;;;;61.28;28.70;;;1.50;99.90;;;;;;5015699;28;20057;-77
2023/02/08 10:04:29;;;;;;;59.38;26.63;;;1.80;99.90;;;;;;4994122;28;20490;-77
2023/02/08 10:06:55;;;;;;;55.17;25.63;;;1.80;99.90;;;;;;5024062;28;20041;-76
2023/02/08 10:09:24;;;;;;;51.58;23.23;;;2.20;99.90;;;;;;5017387;28;20059;-76
2023/02/08 10:12:25;;;;;;;50.70;24.08;;;2.60;99.90;;;;;;5010275;28;20046;-76
2023/02/08 10:15:03;;;;;;;53.53;24.88;;;2.60;99.90;;;;;;5020151;28;20060;-76
2023/02/08 10:17:44;;;;;;;54.00;25.90;;;3.00;99.90;;;;;;5021324;28;20485;-76
2023/02/08 10:20:24;;;;;;;54.22;25.50;;;3.10;99.90;;;;;;5014231;28;20095;-76
2023/02/08 10:23:14;;;;;;;55.10;25.00;;;3.30;99.90;;;;;;5030985;28;20061;-77
2023/02/08 10:25:46;;;;;;;52.88;25.15;;;3.70;99.90;;;;;;5008108;28;20042;-76
2023/02/08 10:28:39;;;;;;;53.55;25.92;;;3.50;99.90;;;;;;5024601;28;20041;-76
2023/02/08 10:31:17;;;;;;;52.13;25.27;;;4.00;99.90;;;;;;5046869;28;20038;-77
2023/02/08 10:34:02;;;;;;;51.97;24.83;;;4.00;99.90;;;;;;5048834;28;20064;-77
2023/02/08 10:36:34;;;;;;;57.53;26.05;;;4.00;99.90;;;;;;4992777;28;20109;-77
2023/02/08 10:39:00;;;;;;;55.25;25.33;;;4.70;99.90;;;;;;5004600;28;20056;-77
2023/02/08 10:41:32;;;;;;;50.08;23.00;;;5.00;99.90;;;;;;4988619;28;20042;-74
2023/02/08 10:44:22;;;;;;;48.83;24.83;;;5.10;99.90;;;;;;5017667;28;20106;-73
2023/02/08 10:47:09;;;;;;;44.92;22.70;;;5.20;99.90;;;;;;5004338;28;20103;-73
2023/02/08 10:49:41;;;;;;;42.60;21.65;;;5.30;99.90;;;;;;5011735;28;20132;-74
2023/02/08 10:52:07;;;;;;;41.50;20.83;;;5.50;99.90;;;;;;5059712;28;20053;-76
2023/02/08 10:54:35;;;;;;;41.63;20.60;;;5.70;99.90;;;;;;5004819;28;20092;-74
2023/02/08 10:57:08;;;;;;;41.38;20.33;;;5.90;99.90;;;;;;5013981;28;20347;-76
2023/02/08 10:59:44;;;;;;;29.80;15.65;;;6.10;99.30;;;;;;5029487;28;20461;-74
2023/02/08 11:02:27;;;;;;;32.80;15.90;;;6.10;92.10;;;;;;5025845;28;20045;-73
2023/02/08 11:05:03;;;;;;;22.98;11.23;;;6.30;88.40;;;;;;5026037;28;20433;-73
2023/02/08 11:07:30;;;;;;;18.13;8.68;;;6.50;84.70;;;;;;5036002;28;20084;-74
2023/02/08 11:10:13;;;;;;;15.23;9.35;;;7.20;76.50;;;;;;5032726;28;20343;-74
2023/02/08 11:12:39;;;;;;;13.68;6.90;;;7.40;61.40;;;;;;5018481;28;20045;-74
2023/02/08 11:15:26;;;;;;;15.57;7.55;;;9.20;55.70;;;;;;5009314;28;20051;-74
2023/02/08 11:17:57;;;;;;;13.50;7.03;;;10.30;47.70;;;;;;5024667;28;20146;-74
2023/02/08 11:20:36;;;;;;;12.82;7.35;;;12.10;43.10;;;;;;5002025;28;20544;-74
2023/02/08 11:23:16;;;;;;;12.52;6.82;;;12.90;40.30;;;;;;5025587;28;20606;-75
2023/02/08 11:25:42;;;;;;;11.90;6.40;;;14.60;37.80;;;;;;5012323;28;20118;-76
2023/02/08 11:28:24;;;;;;;11.73;7.40;;;15.80;37.00;;;;;;4990739;28;20073;-76
2023/02/08 11:31:00;;;;;;;13.23;8.50;;;16.10;36.30;;;;;;5021119;28;20332;-76
2023/02/08 11:33:27;;;;;;;14.30;8.88;;;14.40;36.90;;;;;;5025087;28;20072;-75
2023/02/08 11:36:00;;;;;;;13.55;8.25;;;13.50;38.40;;;;;;5024578;28;20077;-76
2023/02/08 11:38:27;;;;;;;13.43;8.27;;;14.00;38.10;;;;;;5017852;28;20049;-75
2023/02/08 11:40:56;;;;;;;11.50;7.13;;;13.70;41.20;;;;;;5012286;28;20052;-75
2023/02/08 11:43:27;;;;;;;11.13;6.72;;;13.40;37.70;;;;;;5018504;28;20038;-75
2023/02/08 11:45:54;;;;;;;12.45;7.90;;;13.70;38.70;;;;;;5034816;28;20088;-75
2023/02/08 11:48:22;;;;;;;12.80;7.97;;;14.50;35.80;;;;;;5019123;28;20045;-74
2023/02/08 11:50:56;;;;;;;11.30;7.10;;;13.10;38.40;;;;;;5018321;28;20085;-75
2023/02/08 11:53:35;;;;;;;11.63;6.95;;;12.80;41.30;;;;;;5014449;28;20119;-74
2023/02/08 11:56:17;;;;;;;12.40;7.60;;;13.20;40.70;;;;;;5015881;28;20057;-75
2023/02/08 11:58:56;;;;;;;13.90;7.97;;;13.20;39.70;;;;;;5019503;28;20725;-75
2023/02/08 12:01:25;;;;;;;14.30;8.18;;;13.50;38.80;;;;;;5024271;28;20042;-76
2023/02/08 12:03:51;;;;;;;12.40;7.35;;;12.20;39.20;;;;;;5021907;28;20064;-76
2023/02/08 12:06:40;;;;;;;12.05;6.45;;;10.80;41.40;;;;;;5024576;28;20057;-75
2023/02/08 12:09:30;;;;;;;14.80;8.20;;;11.30;41.40;;;;;;5013531;28;20775;-75
2023/02/08 12:12:03;;;;;;;13.35;8.18;;;10.60;44.70;;;;;;5023965;28;20060;-74
2023/02/08 12:14:47;;;;;;;14.70;9.88;;;13.00;42.80;;;;;;5029732;28;20109;-76
2023/02/08 12:17:22;;;;;;;13.90;8.80;;;13.30;37.00;;;;;;5020038;28;20081;-74
2023/02/08 12:20:22;;;;;;;14.95;8.23;;;16.50;36.90;;;;;;5022476;28;20045;-74
2023/02/08 12:23:19;;;;;;;13.60;9.18;;;17.60;33.70;;;;;;5025566;28;20073;-74
2023/02/08 12:26:22;;;;;;;11.98;8.02;;;16.80;35.10;;;;;;5030108;28;20046;-74
2023/02/08 12:29:11;;;;;;;8.98;4.07;;;15.10;35.90;;;;;;5026298;28;20477;-75
2023/02/08 12:31:57;;;;;;;8.68;3.30;;;14.80;35.70;;;;;;5020563;28;20115;-74
2023/02/08 12:34:45;;;;;;;6.70;3.92;;;14.20;36.90;;;;;;5026423;28;20346;-74
2023/02/08 12:43:23;;;;;;;12.35;7.60;;;16.60;32.00;;;;;;5028155;28;20057;-74
2023/02/08 12:46:05;;;;;;;11.30;7.70;;;16.00;34.60;;;;;;5008934;28;20374;-73
2023/02/08 12:49:01;;;;;;;7.00;5.35;;;16.50;33.40;;;;;;5016985;28;20695;-75
2023/02/08 12:51:39;;;;;;;13.68;10.80;;;17.00;33.90;;;;;;5017550;28;20050;-74